METAR Data
IDs: Format: Raw Decoded Include TAF

Data at: 1153 UTC 23 Sep 2018

KRCM 231135Z AUTO 00000KT 2 1/2SM BR CLR 08/08 A3009 RMK AO2 VIS 1 1/2V5
KRCM 231115Z AUTO 00000KT 2SM BR CLR 09/08 A3009 RMK AO2
KRCM 231055Z AUTO 00000KT 3/4SM BR VV005 08/08 A3008 RMK AO2
KRCM 231035Z AUTO 00000KT 2SM BR CLR 10/09 A3008 RMK AO2 VIS 3/4V4
KRCM 231015Z AUTO 00000KT 5SM BR CLR 10/10 A3008 RMK AO2
KRCM 230955Z AUTO 00000KT 1 3/4SM BR VV007 09/08 A3008 RMK AO2
KRCM 230935Z AUTO 00000KT 10SM CLR 10/09 A3008 RMK AO2
KRCM 230915Z AUTO 00000KT 10SM CLR 10/09 A3009 RMK AO2
KRCM 230855Z AUTO 00000KT 10SM CLR 10/10 A3009 RMK AO2
KRCM 230835Z AUTO 00000KT 10SM CLR 10/10 A3009 RMK AO2
KRCM 230815Z AUTO 00000KT 10SM CLR 11/10 A3009 RMK AO2
KRCM 230755Z AUTO 00000KT 10SM CLR 11/10 A3010 RMK AO2
KRCM 230735Z AUTO 00000KT 10SM CLR 11/10 A3010 RMK AO2
KRCM 230715Z AUTO 00000KT 10SM CLR 11/11 A3010 RMK AO2
KRCM 230655Z AUTO 00000KT 10SM CLR 12/11 A3010 RMK AO2
KRCM 230635Z AUTO 00000KT 10SM CLR 11/10 A3010 RMK AO2
KRCM 230615Z AUTO 00000KT 10SM CLR 11/11 A3010 RMK AO2
KRCM 230555Z AUTO 00000KT 10SM CLR 11/10 A3010 RMK AO2
KRCM 230535Z AUTO 00000KT 10SM CLR 12/11 A3011 RMK AO2
KRCM 230515Z AUTO 00000KT 10SM CLR 12/11 A3011 RMK AO2
KRCM 230455Z AUTO 00000KT 10SM CLR 12/11 A3011 RMK AO2
KRCM 230435Z AUTO 00000KT 10SM CLR 12/11 A3011 RMK AO2
KRCM 230415Z AUTO 00000KT 10SM CLR 13/11 A3011 RMK AO2
KRCM 230355Z AUTO 00000KT 10SM CLR 13/11 A3011 RMK AO2
KRCM 230335Z AUTO 00000KT 10SM CLR 15/12 A3011 RMK AO2
KRCM 230315Z AUTO 08003KT 10SM CLR 16/11 A3012 RMK AO2
KRCM 230255Z AUTO 00000KT 10SM CLR 16/11 A3012 RMK AO2
KRCM 230235Z AUTO 00000KT 10SM CLR 16/11 A3012 RMK AO2
KRCM 230215Z AUTO 00000KT 10SM CLR 16/11 A3011 RMK AO2
KRCM 230155Z AUTO 00000KT 10SM CLR 17/11 A3010 RMK AO2
KRCM 230135Z AUTO 03003KT 10SM CLR 17/11 A3010 RMK AO2
KRCM 230115Z AUTO 03003KT 10SM CLR 18/11 A3010 RMK AO2
KRCM 230055Z AUTO 04003KT 10SM CLR 19/11 A3010 RMK AO2
KRCM 230035Z AUTO 05003KT 10SM CLR 20/10 A3010 RMK AO2
KRCM 230015Z AUTO 08003KT 1 3/4SM HZ VV007 21/10 A3010 RMK AO2
KRCM 222355Z AUTO 08004KT 4SM HZ CLR 22/10 A3010 RMK AO2
KRCM 222335Z AUTO 09004KT 7SM CLR 22/10 A3011 RMK AO2
KRCM 222315Z AUTO 09007KT 10SM CLR 23/09 A3011 RMK AO2
KRCM 222255Z AUTO 09006KT 10SM CLR 23/10 A3012 RMK AO2
KRCM 222235Z AUTO 10006KT 10SM CLR 23/09 A3012 RMK AO2
KRCM 222215Z AUTO 10004KT 10SM CLR 23/09 A3012 RMK AO2
KRCM 222155Z AUTO 05004G09KT 10SM CLR 23/09 A3012 RMK AO2
KRCM 222135Z AUTO 06003KT 10SM CLR 23/09 A3013 RMK AO2
KRCM 222115Z AUTO 09004KT 10SM CLR 23/10 A3013 RMK AO2
KRCM 222055Z AUTO 09007KT 044V114 10SM CLR 23/10 A3014 RMK AO2
KRCM 222035Z AUTO 08007KT 10SM CLR 23/09 A3014 RMK AO2
KRCM 222015Z AUTO 08003KT 10SM CLR 22/10 A3015 RMK AO2
KRCM 221955Z AUTO 02004KT 10SM CLR 22/09 A3016 RMK AO2
KRCM 221935Z AUTO 07006KT 10SM CLR 22/09 A3018 RMK AO2
KRCM 221915Z AUTO 07007KT 10SM CLR 22/09 A3018 RMK AO2
KRCM 221855Z AUTO 02005KT 10SM CLR 21/10 A3020 RMK AO2
KRCM 221835Z AUTO 01006KT 10SM CLR 21/10 A3020 RMK AO2
KRCM 221815Z AUTO 04005KT 10SM CLR 20/10 A3021 RMK AO2
KRCM 221755Z AUTO 09003KT 10SM CLR 20/09 A3022 RMK AO2
KRCM 221735Z AUTO 06003KT 10SM CLR 20/10 A3023 RMK AO2
KRCM 221715Z AUTO 05006KT 10SM CLR 20/10 A3024 RMK AO2
KRCM 221655Z AUTO 00000KT 10SM CLR 18/10 A3025 RMK AO2
KRCM 221635Z AUTO 04003KT 10SM CLR 17/09 A3025 RMK AO2
KRCM 221615Z AUTO 04006KT 10SM CLR 16/09 A3026 RMK AO2
KRCM 221555Z AUTO 02004KT 10SM CLR 16/08 A3026 RMK AO2
KRCM 221535Z AUTO 06006KT 10SM CLR 15/08 A3027 RMK AO2
KRCM 221515Z AUTO 05006KT 10SM CLR 15/08 A3027 RMK AO2
KRCM 221455Z AUTO 02005KT 10SM CLR 13/08 A3027 RMK AO2
KRCM 221435Z AUTO 05006KT 10SM CLR 13/08 A3027 RMK AO2
KRCM 221415Z AUTO 05004KT 10SM CLR 12/08 A3027 RMK AO2
KRCM 221355Z AUTO 03003KT 10SM CLR 11/07 A3027 RMK AO2
KRCM 221335Z AUTO 00000KT 10SM CLR 10/07 A3027 RMK AO2
KRCM 221315Z AUTO 00000KT 10SM CLR 09/07 A3028 RMK AO2
KRCM 221255Z AUTO 00000KT 10SM CLR 08/07 A3028 RMK AO2
KRCM 221235Z AUTO 36003KT 10SM CLR 08/07 A3028 RMK AO2
KRCM 221215Z AUTO 01004KT 10SM CLR 08/07 A3028 RMK AO2
KRCM 221155Z AUTO 02003KT 10SM CLR 09/07 A3027 RMK AO2
KRCM 221135Z AUTO 01004KT 10SM CLR 09/07 A3027 RMK AO2
KRCM 221115Z AUTO 36005KT 10SM CLR 10/07 A3026 RMK AO2
KRCM 221055Z AUTO 01004KT 10SM CLR 10/07 A3026 RMK AO2
KRCM 221035Z AUTO 02005KT 10SM CLR 10/07 A3026 RMK AO2
KRCM 221015Z AUTO 02004KT 10SM CLR 10/07 A3025 RMK AO2
KRCM 220955Z AUTO 01006KT 10SM CLR 11/08 A3025 RMK AO2
KRCM 220935Z AUTO 01004KT 10SM CLR 11/08 A3025 RMK AO2
KRCM 220915Z AUTO 01006KT 10SM CLR 11/08 A3026 RMK AO2
KRCM 220855Z AUTO 01007KT 10SM CLR 12/08 A3025 RMK AO2
KRCM 220835Z AUTO 02005KT 10SM CLR 12/08 A3026 RMK AO2
KRCM 220815Z AUTO 02006KT 10SM CLR 13/09 A3026 RMK AO2
KRCM 220755Z AUTO 02006KT 10SM CLR 13/09 A3026 RMK AO2
KRCM 220735Z AUTO 02006KT 10SM CLR 13/09 A3027 RMK AO2
KRCM 220715Z AUTO 02008KT 10SM CLR 13/09 A3026 RMK AO2
KRCM 220655Z AUTO 03006KT 10SM CLR 14/09 A3027 RMK AO2
KRCM 220635Z AUTO 02006KT 10SM CLR 14/09 A3027 RMK AO2
KRCM 220615Z AUTO 02004KT 10SM CLR 14/09 A3026 RMK AO2
KRCM 220555Z AUTO 01004KT 10SM CLR 14/09 A3026 RMK AO2
KRCM 220535Z AUTO 35004KT 10SM CLR 15/09 A3026 RMK AO2
KRCM 220515Z AUTO 36006KT 10SM CLR 15/09 A3026 RMK AO2
KRCM 220455Z AUTO 01006KT 10SM CLR 15/09 A3026 RMK AO2
KRCM 220435Z AUTO 36006KT 10SM CLR 15/10 A3026 RMK AO2
KRCM 220415Z AUTO 36007KT 10SM CLR 15/10 A3026 RMK AO2
KRCM 220355Z AUTO 36005KT 10SM CLR 15/10 A3026 RMK AO2
KRCM 220335Z AUTO 36005KT 10SM CLR 15/10 A3026 RMK AO2
KRCM 220315Z AUTO 36004KT 10SM SCT100 16/10 A3026 RMK AO2
KRCM 220255Z AUTO 36004KT 10SM CLR 16/10 A3026 RMK AO2
KRCM 220235Z AUTO 35005KT 10SM CLR 16/10 A3026 RMK AO2
KRCM 220215Z AUTO 36005KT 10SM CLR 16/10 A3025 RMK AO2
KRCM 220155Z AUTO 34007KT 10SM CLR 16/10 A3025 RMK AO2
KRCM 220135Z AUTO 35006KT 10SM CLR 16/10 A3023 RMK AO2
KRCM 220115Z AUTO 34006KT 10SM CLR 17/10 A3023 RMK AO2
KRCM 220055Z AUTO 35008G14KT 10SM CLR 17/10 A3022 RMK AO2
KRCM 220035Z AUTO 33006KT 10SM CLR 17/11 A3022 RMK AO2
KRCM 220015Z AUTO 32004KT 10SM SCT040 17/12 A3021 RMK AO2
KRCM 212355Z AUTO 34003KT 10SM SCT042 18/12 A3020 RMK AO2